createdAt,value
2019-04-20T00:00:39.948Z,30.62
2019-04-20T00:01:32.609Z,30.60
2019-04-20T00:02:31.693Z,30.42
2019-04-20T00:03:38.094Z,30.72
2019-04-20T00:04:35.178Z,31.21
2019-04-20T00:05:30.989Z,30.72
2019-04-20T00:06:38.269Z,30.62
2019-04-20T00:07:34.276Z,30.62
2019-04-20T00:08:34.707Z,30.52
2019-04-20T00:09:34.819Z,30.42
2019-04-20T00:10:43.407Z,30.62
2019-04-20T00:11:43.040Z,30.62
2019-04-20T00:12:42.358Z,31.12
2019-04-20T00:13:40.708Z,30.72
2019-04-20T00:14:34.561Z,30.62
2019-04-20T00:15:32.126Z,30.62
2019-04-20T00:16:31.621Z,30.52
2019-04-20T00:17:30.836Z,31.12
2019-04-20T00:18:39.263Z,31.12
2019-04-20T00:19:37.094Z,31.02
2019-04-20T00:20:34.019Z,30.72
2019-04-20T00:21:30.938Z,31.02
2019-04-20T00:22:40.592Z,31.02
2019-04-20T00:23:35.441Z,31.12
2019-04-20T00:24:34.067Z,30.82
2019-04-20T00:25:43.854Z,31.21
2019-04-20T00:27:02.046Z,31.21
2019-04-20T00:27:50.267Z,30.72
2019-04-20T00:28:47.600Z,31.21
2019-04-20T00:29:49.868Z,31.02
2019-04-20T00:30:50.307Z,31.02
2019-04-20T00:31:48.101Z,31.02
2019-04-20T00:33:45.849Z,31.02
2019-04-20T00:34:36.484Z,31.12
2019-04-20T00:35:31.395Z,31.12
2019-04-20T00:36:30.847Z,31.02
2019-04-20T00:37:31.954Z,31.02
2019-04-20T00:38:37.638Z,30.62
2019-04-20T00:39:31.897Z,30.72
2019-04-20T00:40:30.699Z,31.02
2019-04-20T00:41:34.069Z,31.12
2019-04-20T00:42:39.153Z,30.72
2019-04-20T00:43:34.231Z,31.02
2019-04-20T00:44:35.816Z,31.02
2019-04-20T00:45:34.769Z,31.02
2019-04-20T00:46:39.642Z,31.02
2019-04-20T00:47:42.891Z,30.82
2019-04-20T00:48:43.094Z,30.82
2019-04-20T00:49:46.123Z,30.91
2019-04-20T00:50:44.411Z,30.62
2019-04-20T00:51:44.850Z,31.02
2019-04-20T00:52:49.138Z,30.72
2019-04-20T00:53:37.252Z,30.72
2019-04-20T00:54:30.646Z,30.72
2019-04-20T00:55:31.835Z,30.82
2019-04-20T00:56:30.949Z,30.91
2019-04-20T00:57:40.681Z,30.82
2019-04-20T00:58:47.850Z,30.72
2019-04-20T00:59:54.212Z,31.02
2019-04-20T01:00:48.373Z,31.02
2019-04-20T01:01:47.595Z,30.82
2019-04-20T01:02:46.238Z,30.72
2019-04-20T01:03:43.521Z,30.82
2019-04-20T01:04:47.686Z,30.82
2019-04-20T01:05:53.337Z,30.82
2019-04-20T01:06:46.307Z,30.91
2019-04-20T01:07:39.411Z,30.82
2019-04-20T01:08:30.283Z,31.02
2019-04-20T01:09:30.889Z,31.32
2019-04-20T01:10:38.454Z,30.82
2019-04-20T01:11:36.763Z,30.72
2019-04-20T01:12:33.771Z,31.02
2019-04-20T01:13:31.677Z,31.32
2019-04-20T01:14:38.060Z,31.21
2019-04-20T01:15:38.821Z,30.72
2019-04-20T01:16:38.604Z,30.82
2019-04-20T01:17:30.201Z,31.21
2019-04-20T01:18:30.173Z,30.62
2019-04-20T01:19:31.047Z,31.32
2019-04-20T01:20:30.155Z,31.32
2019-04-20T01:21:33.464Z,31.21
2019-04-20T01:22:35.276Z,31.21
2019-04-20T01:23:38.215Z,31.21
2019-04-20T01:24:35.339Z,30.91
2019-04-20T01:25:35.366Z,31.21
2019-04-20T01:26:31.270Z,31.32
2019-04-20T01:27:42.100Z,30.52
2019-04-20T01:28:47.786Z,30.82
2019-04-20T01:29:38.802Z,31.02
2019-04-20T01:30:36.200Z,31.21
2019-04-20T01:31:38.314Z,31.21
2019-04-20T01:32:41.617Z,30.82
2019-04-20T01:33:45.175Z,30.82
2019-04-20T01:34:42.689Z,30.82
2019-04-20T01:35:46.100Z,31.32
2019-04-20T01:36:46.092Z,31.21
2019-04-20T01:37:46.976Z,30.72
2019-04-20T01:38:44.640Z,31.21
2019-04-20T01:39:37.117Z,31.21
2019-04-20T01:40:29.946Z,31.21
2019-04-20T01:41:30.795Z,30.62
2019-04-20T01:42:30.202Z,30.72
2019-04-20T01:43:31.189Z,31.23
2019-04-20T01:44:36.777Z,31.21
2019-04-20T01:45:35.478Z,31.21
2019-04-20T01:46:31.595Z,30.82
2019-04-20T01:47:37.962Z,30.72
2019-04-20T01:48:33.957Z,31.32
2019-04-20T01:49:32.408Z,31.21
2019-04-20T01:50:33.640Z,31.03
2019-04-20T01:51:37.683Z,30.83
2019-04-20T01:52:42.607Z,31.21
2019-04-20T01:53:44.283Z,31.21
2019-04-20T01:54:48.253Z,31.12
2019-04-20T01:56:01.132Z,31.13
2019-04-20T01:56:40.533Z,31.21
2019-04-20T01:57:53.477Z,30.73
2019-04-20T01:58:50.624Z,31.21
2019-04-20T01:59:40.096Z,31.21
2019-04-20T02:00:35.153Z,31.13
2019-04-20T02:01:34.313Z,31.23
2019-04-20T02:02:31.103Z,31.23
2019-04-20T02:03:36.961Z,31.12
2019-04-20T02:04:34.391Z,30.73
2019-04-20T02:05:34.217Z,30.73
2019-04-20T02:06:31.913Z,31.23
2019-04-20T02:07:35.517Z,31.02
2019-04-20T02:08:31.036Z,30.73
2019-04-20T02:09:32.527Z,30.63
2019-04-20T02:10:37.962Z,30.73
2019-04-20T02:11:34.983Z,30.72
2019-04-20T02:12:34.265Z,30.54
2019-04-20T02:13:37.273Z,30.73
2019-04-20T02:14:37.711Z,30.73
2019-04-20T02:15:38.100Z,30.73
2019-04-20T02:16:38.290Z,30.62
2019-04-20T02:17:37.367Z,30.63
2019-04-20T02:18:41.622Z,31.03
2019-04-20T02:19:43.009Z,30.63
2019-04-20T02:20:48.582Z,30.63
2019-04-20T02:21:50.192Z,30.54
2019-04-20T02:22:48.305Z,30.52
2019-04-20T02:23:38.825Z,31.13
2019-04-20T02:24:29.923Z,30.82
2019-04-20T02:25:29.478Z,30.63
2019-04-20T02:26:30.222Z,30.54
2019-04-20T02:27:36.830Z,30.63
2019-04-20T02:28:56.872Z,30.63
2019-04-20T02:29:51.119Z,30.62
2019-04-20T02:31:06.349Z,30.62
2019-04-20T02:32:10.404Z,31.03
2019-04-20T02:33:13.983Z,31.03
2019-04-20T02:34:08.916Z,30.63
2019-04-20T02:34:59.243Z,30.63
2019-04-20T02:38:12.572Z,31.03
2019-04-20T02:39:22.158Z,30.63
2019-04-20T02:40:05.211Z,30.54
2019-04-20T02:42:07.946Z,30.54
2019-04-20T02:43:16.854Z,30.54
2019-04-20T02:45:14.779Z,30.63
2019-04-20T02:46:22.521Z,30.63
2019-04-20T02:47:08.421Z,30.83
2019-04-20T02:49:18.187Z,30.63
2019-04-20T02:49:57.983Z,30.54
2019-04-20T02:50:58.976Z,30.63
2019-04-20T02:53:04.573Z,31.03
2019-04-20T02:54:13.103Z,31.03
2019-04-20T02:55:09.585Z,30.63
2019-04-20T02:56:03.910Z,30.43
2019-04-20T02:57:05.299Z,30.63
2019-04-20T02:59:27.075Z,30.63
2019-04-20T03:00:52.618Z,30.63
2019-04-20T03:01:45.477Z,30.83
2019-04-20T03:02:42.554Z,30.63
2019-04-20T03:03:36.552Z,30.54
2019-04-20T03:04:40.237Z,30.54
2019-04-20T03:05:40.612Z,31.03
2019-04-20T03:06:42.338Z,30.63
2019-04-20T03:07:50.465Z,30.63
2019-04-20T03:08:51.647Z,30.54
2019-04-20T03:09:45.935Z,30.63
2019-04-20T03:10:52.505Z,30.54
2019-04-20T03:11:59.656Z,30.54
2019-04-20T03:12:50.639Z,31.03
2019-04-20T03:13:50.233Z,30.63
2019-04-20T03:14:45.010Z,30.63
2019-04-20T03:15:49.768Z,30.63
2019-04-20T03:16:45.780Z,30.63
2019-04-20T03:17:50.850Z,30.93
2019-04-20T03:18:46.963Z,30.54
2019-04-20T03:19:44.615Z,30.93
2019-04-20T03:20:55.007Z,30.54
2019-04-20T03:21:55.270Z,30.54
2019-04-20T03:23:12.836Z,30.73
2019-04-20T03:23:54.279Z,30.63
2019-04-20T03:24:54.039Z,30.43
2019-04-20T03:25:55.479Z,30.43
2019-04-20T03:26:47.540Z,30.63
2019-04-20T03:27:41.270Z,30.63
2019-04-20T03:28:43.872Z,30.63
2019-04-20T03:29:40.817Z,30.43
2019-04-20T03:31:25.022Z,30.43
2019-04-20T03:32:14.645Z,30.54
2019-04-20T03:34:15.582Z,30.63
2019-04-20T03:36:02.233Z,30.54
2019-04-20T03:36:55.057Z,30.63
2019-04-20T03:37:48.506Z,30.63
2019-04-20T03:38:48.019Z,30.93
2019-04-20T03:39:46.274Z,31.03
2019-04-20T03:40:41.114Z,30.63
2019-04-20T03:41:37.960Z,31.13
2019-04-20T03:42:28.933Z,30.63
2019-04-20T03:43:28.823Z,30.54
2019-04-20T03:44:32.548Z,30.93
2019-04-20T03:45:39.380Z,30.63
2019-04-20T03:46:37.595Z,31.03
2019-04-20T03:47:38.818Z,30.63
2019-04-20T03:48:41.490Z,30.63
2019-04-20T03:49:54.822Z,30.63
2019-04-20T03:50:54.670Z,30.54
2019-04-20T03:51:47.095Z,30.63
2019-04-20T03:52:51.424Z,30.63
2019-04-20T03:53:53.219Z,31.03
2019-04-20T03:54:42.690Z,30.63
2019-04-20T03:55:44.448Z,31.03
2019-04-20T03:56:49.235Z,30.63
2019-04-20T03:57:51.224Z,30.63
2019-04-20T03:58:45.594Z,30.63
2019-04-20T03:59:51.014Z,30.54
2019-04-20T04:00:46.707Z,31.03
2019-04-20T04:02:12.424Z,30.63
2019-04-20T04:03:04.718Z,30.63
2019-04-20T04:03:53.068Z,30.83
2019-04-20T04:04:49.455Z,31.13
2019-04-20T04:05:44.645Z,30.63
2019-04-20T04:06:36.107Z,30.63
2019-04-20T04:07:36.502Z,31.13
2019-04-20T04:08:37.331Z,30.73
2019-04-20T04:09:37.067Z,30.63
2019-04-20T04:10:47.611Z,31.03
2019-04-20T04:11:43.498Z,30.63
2019-04-20T04:12:35.084Z,30.54
2019-04-20T04:13:29.103Z,30.63
2019-04-20T04:14:30.406Z,30.63
2019-04-20T04:15:29.381Z,30.54
2019-04-20T04:16:39.453Z,30.63
2019-04-20T04:17:34.971Z,30.63
2019-04-20T04:18:35.466Z,30.63
2019-04-20T04:19:33.033Z,30.63
2019-04-20T04:20:37.654Z,30.63
2019-04-20T04:21:45.786Z,30.54
2019-04-20T04:22:43.957Z,30.54
2019-04-20T04:23:47.377Z,30.63
2019-04-20T04:24:36.803Z,30.63
2019-04-20T04:25:42.706Z,30.63
2019-04-20T04:26:45.610Z,30.54
2019-04-20T04:27:52.206Z,30.63
2019-04-20T04:28:43.824Z,30.73
2019-04-20T04:29:47.156Z,30.63
2019-04-20T04:30:36.796Z,30.54
2019-04-20T04:31:59.816Z,30.65
2019-04-20T04:33:15.609Z,30.63
2019-04-20T04:34:44.656Z,31.03
2019-04-20T04:35:44.226Z,30.63
2019-04-20T04:36:52.420Z,30.43
2019-04-20T04:37:51.403Z,30.63
2019-04-20T04:38:51.488Z,30.63
2019-04-20T04:39:42.915Z,30.63
2019-04-20T04:40:55.712Z,31.03
2019-04-20T04:41:52.328Z,30.63
2019-04-20T04:42:53.539Z,30.54
2019-04-20T04:43:44.132Z,31.03
2019-04-20T04:44:42.180Z,30.63
2019-04-20T04:45:31.444Z,30.63
2019-04-20T04:46:29.133Z,30.63
2019-04-20T04:47:28.554Z,30.63
2019-04-20T04:48:33.584Z,30.65
2019-04-20T04:49:34.133Z,30.55
2019-04-20T04:50:31.100Z,30.63
2019-04-20T04:51:41.951Z,30.65
2019-04-20T04:52:41.859Z,30.63
2019-04-20T04:53:43.028Z,30.63
2019-04-20T04:54:37.771Z,30.65
2019-04-20T04:55:38.118Z,30.65
2019-04-20T04:56:29.942Z,30.63
2019-04-20T04:57:28.591Z,30.63
2019-04-20T04:58:27.835Z,30.63
2019-04-20T04:59:27.817Z,31.03
2019-04-20T05:00:31.101Z,30.63
2019-04-20T05:01:30.727Z,30.65
2019-04-20T05:02:32.460Z,30.43
2019-04-20T05:03:44.980Z,30.63
2019-04-20T05:04:48.347Z,31.03
2019-04-20T05:05:52.855Z,30.73
2019-04-20T05:06:37.520Z,30.63
2019-04-20T05:07:40.033Z,31.03
2019-04-20T05:08:34.734Z,30.63
2019-04-20T05:09:27.741Z,30.63
2019-04-20T05:10:28.757Z,30.94
2019-04-20T05:11:28.079Z,30.94
2019-04-20T05:12:31.346Z,30.45
2019-04-20T05:13:39.286Z,30.83
2019-04-20T05:14:42.349Z,30.63
2019-04-20T05:15:37.366Z,30.65
2019-04-20T05:16:47.413Z,30.63
2019-04-20T05:17:51.140Z,30.65
2019-04-20T05:18:51.513Z,30.63
2019-04-20T05:19:49.774Z,30.55
2019-04-20T05:20:54.815Z,30.43
2019-04-20T05:21:56.426Z,30.83
2019-04-20T05:22:46.699Z,30.63
2019-04-20T05:23:38.827Z,30.54
2019-04-20T05:24:43.593Z,30.65
2019-04-20T05:25:54.671Z,30.43
2019-04-20T05:26:54.342Z,30.54
2019-04-20T05:27:47.913Z,30.85
2019-04-20T05:28:37.156Z,30.94
2019-04-20T05:29:31.706Z,30.55
2019-04-20T05:30:28.742Z,30.45
2019-04-20T05:31:36.544Z,30.85
2019-04-20T05:32:35.777Z,30.45
2019-04-20T05:33:41.440Z,30.43
2019-04-20T05:34:52.571Z,30.43
2019-04-20T05:35:51.235Z,30.45
2019-04-20T05:36:46.266Z,30.65
2019-04-20T05:37:57.352Z,30.85
2019-04-20T05:38:52.158Z,30.54
2019-04-20T05:39:50.833Z,30.65
2019-04-20T05:40:45.967Z,30.85
2019-04-20T05:41:48.574Z,30.94
2019-04-20T05:42:48.508Z,30.94
2019-04-20T05:43:41.498Z,30.55
2019-04-20T05:44:52.495Z,30.63
2019-04-20T05:45:42.766Z,30.55
2019-04-20T05:46:47.656Z,30.65
2019-04-20T05:47:47.992Z,30.45
2019-04-20T05:48:53.266Z,30.45
2019-04-20T05:49:45.401Z,30.55
2019-04-20T05:50:43.776Z,30.45
2019-04-20T05:51:43.304Z,30.65
2019-04-20T05:53:45.470Z,30.45
2019-04-20T05:54:51.429Z,30.65
2019-04-20T05:55:52.492Z,30.85
2019-04-20T05:56:46.843Z,31.05
2019-04-20T05:57:50.962Z,30.63
2019-04-20T05:58:50.702Z,31.05
2019-04-20T05:59:55.991Z,30.65
2019-04-20T06:00:47.937Z,30.55
2019-04-20T06:01:55.843Z,30.65
2019-04-20T06:02:43.815Z,30.65
2019-04-20T06:03:45.107Z,30.65
2019-04-20T06:04:59.984Z,30.45
2019-04-20T06:05:56.752Z,30.94
2019-04-20T06:06:49.811Z,30.85
2019-04-20T06:07:48.690Z,30.55
2019-04-20T06:08:57.975Z,30.65
2019-04-20T06:09:47.783Z,30.43
2019-04-20T06:10:50.878Z,30.45
2019-04-20T06:12:06.064Z,30.43
2019-04-20T06:12:45.916Z,30.83
2019-04-20T06:13:39.471Z,30.73
2019-04-20T06:14:43.086Z,30.73
2019-04-20T06:15:46.580Z,30.73
2019-04-20T06:16:50.622Z,30.75
2019-04-20T06:17:48.860Z,30.33
2019-04-20T06:18:42.267Z,31.05
2019-04-20T06:19:47.260Z,30.83
2019-04-20T06:20:50.286Z,30.73
2019-04-20T06:21:53.075Z,30.65
2019-04-20T06:22:48.349Z,31.03
2019-04-20T06:23:50.867Z,31.03
2019-04-20T06:24:57.153Z,30.55
2019-04-20T06:26:11.227Z,31.03
2019-04-20T06:26:53.621Z,31.03
2019-04-20T06:28:40.623Z,30.13
2019-04-20T06:29:45.862Z,30.83
2019-04-20T06:30:43.313Z,30.54
2019-04-20T06:31:45.958Z,30.54
2019-04-20T06:32:44.278Z,30.73
2019-04-20T06:34:01.366Z,31.13
2019-04-20T06:34:42.525Z,30.33
2019-04-20T06:36:09.884Z,30.13
2019-04-20T06:36:49.783Z,31.03
2019-04-20T06:37:55.074Z,30.13
2019-04-20T06:38:56.255Z,31.03
2019-04-20T06:39:48.870Z,31.13
2019-04-20T06:40:59.493Z,30.63
2019-04-20T06:42:06.994Z,30.33
2019-04-20T06:42:48.197Z,30.63
2019-04-20T06:43:59.356Z,30.73
2019-04-20T06:44:46.437Z,30.33
2019-04-20T06:45:51.348Z,30.54
2019-04-20T06:46:54.273Z,30.93
2019-04-20T06:47:52.128Z,30.63
2019-04-20T06:48:51.665Z,30.54
2019-04-20T06:49:42.202Z,30.63
2019-04-20T06:50:44.706Z,30.54
2019-04-20T06:51:47.624Z,30.43
2019-04-20T06:52:42.256Z,30.54
2019-04-20T06:53:46.950Z,30.63
2019-04-20T06:54:48.705Z,30.63
2019-04-20T06:55:55.112Z,30.43
2019-04-20T06:56:48.985Z,30.63
2019-04-20T06:57:45.348Z,30.63
2019-04-20T06:58:49.313Z,30.63
2019-04-20T06:59:46.006Z,30.33
2019-04-20T07:00:47.710Z,30.43
2019-04-20T07:02:00.269Z,30.43
2019-04-20T07:02:58.902Z,30.33
2019-04-20T07:05:00.128Z,30.33
2019-04-20T07:05:47.788Z,30.33
2019-04-20T07:08:17.194Z,30.24
2019-04-20T07:08:58.688Z,30.24
2019-04-20T07:10:03.618Z,30.24
2019-04-20T07:10:51.924Z,30.33
2019-04-20T07:11:46.710Z,30.22
2019-04-20T07:12:40.923Z,30.43
2019-04-20T07:13:36.017Z,30.32
2019-04-20T07:14:40.568Z,30.24
2019-04-20T07:15:41.637Z,30.24
2019-04-20T07:16:47.877Z,30.24
2019-04-20T07:17:54.708Z,30.43
2019-04-20T07:18:50.872Z,30.43
2019-04-20T07:19:45.355Z,30.54
2019-04-20T07:20:56.735Z,30.32
2019-04-20T07:22:01.897Z,30.54
2019-04-20T07:22:46.628Z,30.22
2019-04-20T07:23:48.184Z,30.42
2019-04-20T07:24:53.261Z,30.22
2019-04-20T07:25:47.857Z,30.52
2019-04-20T07:26:53.913Z,30.52
2019-04-20T07:27:49.538Z,30.52
2019-04-20T07:28:57.589Z,30.22
2019-04-20T07:29:54.953Z,30.02
2019-04-20T07:30:46.491Z,30.12
2019-04-20T07:31:44.196Z,30.42
2019-04-20T07:32:52.649Z,30.42
2019-04-20T07:33:46.329Z,30.32
2019-04-20T07:35:46.181Z,30.42
2019-04-20T07:36:52.715Z,30.22
2019-04-20T07:38:10.404Z,30.02
2019-04-20T07:38:46.590Z,30.22
2019-04-20T07:39:48.028Z,30.22
2019-04-20T07:40:44.452Z,30.02
2019-04-20T07:41:55.619Z,30.02
2019-04-20T07:42:51.116Z,30.22
2019-04-20T07:43:57.459Z,30.22
2019-04-20T07:44:49.805Z,30.02
2019-04-20T07:45:46.570Z,30.22
2019-04-20T07:47:07.842Z,30.02
2019-04-20T07:47:59.552Z,30.32
2019-04-20T07:48:43.105Z,30.22
2019-04-20T07:49:48.351Z,30.12
2019-04-20T07:50:37.532Z,30.32
2019-04-20T07:51:32.086Z,30.11
2019-04-20T07:52:38.735Z,30.51
2019-04-20T07:53:40.284Z,30.60
2019-04-20T07:55:06.383Z,30.41
2019-04-20T07:55:50.816Z,30.21
2019-04-20T07:57:42.877Z,30.11
2019-04-20T07:58:36.320Z,30.60
2019-04-20T07:59:39.690Z,30.30
2019-04-20T08:00:57.727Z,30.30
2019-04-20T08:01:53.061Z,30.00
2019-04-20T08:02:48.835Z,30.30
2019-04-20T08:03:50.381Z,30.00
2019-04-20T08:04:42.484Z,29.81
2019-04-20T08:05:40.657Z,29.31
2019-04-20T08:06:35.382Z,29.61
2019-04-20T08:07:39.059Z,29.61
2019-04-20T08:08:42.648Z,29.61
2019-04-20T08:09:34.930Z,29.71
2019-04-20T08:10:44.929Z,30.21
2019-04-20T08:11:50.740Z,29.61
2019-04-20T08:12:51.753Z,29.61
2019-04-20T08:14:46.777Z,29.51
2019-04-20T08:16:58.444Z,29.39
2019-04-20T08:17:57.878Z,29.20
2019-04-20T08:18:49.955Z,29.51
2019-04-20T08:19:48.085Z,29.39
2019-04-20T08:20:49.447Z,29.39
2019-04-20T08:21:48.690Z,29.21
2019-04-20T08:22:47.933Z,29.20
2019-04-20T08:23:44.235Z,29.10
2019-04-20T08:24:43.975Z,29.20
2019-04-20T08:25:39.909Z,29.41
2019-04-20T08:26:31.010Z,29.50
2019-04-20T08:27:25.756Z,29.50
2019-04-20T08:28:36.024Z,29.50
2019-04-20T08:29:41.072Z,29.39
2019-04-20T08:30:42.270Z,29.50
2019-04-20T08:31:40.610Z,29.50
2019-04-20T08:32:41.684Z,29.30
2019-04-20T08:33:55.260Z,29.20
2019-04-20T08:34:50.726Z,29.39
2019-04-20T08:35:52.446Z,29.39
2019-04-20T08:36:47.859Z,29.20
2019-04-20T08:37:50.947Z,29.39
2019-04-20T08:39:07.040Z,29.19
2019-04-20T08:41:51.741Z,29.50
2019-04-20T08:42:56.045Z,29.39
2019-04-20T08:45:48.814Z,29.68
2019-04-20T08:46:53.677Z,29.98
2019-04-20T08:47:54.885Z,29.99
2019-04-20T08:48:46.336Z,29.88
2019-04-20T08:49:49.199Z,29.48
2019-04-20T08:50:45.515Z,29.58
2019-04-20T08:51:49.740Z,29.98
2019-04-20T08:53:46.993Z,29.68
2019-04-20T08:54:37.868Z,29.88
2019-04-20T08:55:42.545Z,29.68
2019-04-20T08:56:36.083Z,29.78
2019-04-20T08:57:25.280Z,29.68
2019-04-20T08:58:25.225Z,29.38
2019-04-20T08:59:26.079Z,29.68
2019-04-20T09:00:33.144Z,29.58
2019-04-20T09:01:30.320Z,29.78
2019-04-20T09:02:25.838Z,29.78
2019-04-20T09:03:32.642Z,29.77
2019-04-20T09:04:40.284Z,29.68
2019-04-20T09:05:34.965Z,29.47
2019-04-20T09:06:40.027Z,29.57
2019-04-20T09:07:29.777Z,29.58
2019-04-20T09:08:32.723Z,29.58
2019-04-20T09:10:00.567Z,29.57
2019-04-20T09:10:46.803Z,28.88
2019-04-20T09:11:49.371Z,29.27
2019-04-20T09:12:40.909Z,28.97
2019-04-20T09:13:34.303Z,29.37
2019-04-20T09:14:26.584Z,29.47
2019-04-20T09:15:25.339Z,29.27
2019-04-20T09:16:31.753Z,28.88
2019-04-20T09:17:32.404Z,28.88
2019-04-20T09:18:31.288Z,28.97
2019-04-20T09:19:34.857Z,28.67
2019-04-20T09:20:37.018Z,28.97
2019-04-20T09:21:36.644Z,28.97
2019-04-20T09:22:36.499Z,28.67
2019-04-20T09:23:36.562Z,28.67
2019-04-20T09:24:45.123Z,28.77
2019-04-20T09:26:43.165Z,28.86
2019-04-20T09:27:35.614Z,28.67
2019-04-20T09:28:33.192Z,29.47
2019-04-20T09:29:33.378Z,28.66
2019-04-20T09:30:37.318Z,28.77
2019-04-20T09:31:40.933Z,28.96
2019-04-20T09:32:40.276Z,29.25
2019-04-20T09:33:43.898Z,28.88
2019-04-20T09:34:51.310Z,28.66
2019-04-20T09:35:43.264Z,29.25
2019-04-20T09:36:40.794Z,29.36
2019-04-20T09:37:43.164Z,29.46
2019-04-20T09:38:40.608Z,29.46
2019-04-20T09:39:33.874Z,29.46
2019-04-20T09:40:40.253Z,29.36
2019-04-20T09:41:52.804Z,29.46
2019-04-20T09:42:24.757Z,29.36
2019-04-20T09:43:25.865Z,29.36
2019-04-20T09:44:31.450Z,29.16
2019-04-20T09:45:32.972Z,29.16
2019-04-20T09:46:24.721Z,29.24
2019-04-20T09:47:33.840Z,29.06
2019-04-20T09:48:33.396Z,29.14
2019-04-20T09:49:40.356Z,29.24
2019-04-20T09:50:43.751Z,29.06
2019-04-20T09:51:46.159Z,28.96
2019-04-20T09:52:45.719Z,29.24
2019-04-20T09:53:35.768Z,29.06
2019-04-20T09:54:42.932Z,29.25
2019-04-20T09:55:35.404Z,28.85
2019-04-20T09:56:39.547Z,29.65
2019-04-20T09:57:43.847Z,28.86
2019-04-20T09:58:37.889Z,29.54
2019-04-20T09:59:45.153Z,29.54
2019-04-20T10:00:42.226Z,29.64
2019-04-20T10:01:32.740Z,29.54
2019-04-20T10:02:29.181Z,29.64
2019-04-20T10:03:24.893Z,29.54
2019-04-20T10:04:25.734Z,29.64
2019-04-20T10:05:25.367Z,29.14
2019-04-20T10:06:30.024Z,29.64
2019-04-20T10:07:28.704Z,29.64
2019-04-20T10:08:25.909Z,29.44
2019-04-20T10:09:28.029Z,29.44
2019-04-20T10:10:32.221Z,29.44
2019-04-20T10:11:25.505Z,29.14
2019-04-20T10:12:25.943Z,29.04
2019-04-20T10:13:25.197Z,29.23
2019-04-20T10:14:24.854Z,29.64
2019-04-20T10:15:27.841Z,29.64
2019-04-20T10:16:25.943Z,29.63
2019-04-20T10:17:27.175Z,29.04
2019-04-20T10:18:25.709Z,29.63
2019-04-20T10:19:30.396Z,29.63
2019-04-20T10:20:29.828Z,29.63
2019-04-20T10:21:25.733Z,29.43
2019-04-20T10:22:24.611Z,29.63
2019-04-20T10:23:24.876Z,29.43
2019-04-20T10:24:24.454Z,29.63
2019-04-20T10:25:24.566Z,29.13
2019-04-20T10:26:24.739Z,29.13
2019-04-20T10:27:24.397Z,28.93
2019-04-20T10:28:25.536Z,28.93
2019-04-20T10:29:25.809Z,29.82
2019-04-20T10:30:26.314Z,28.93
2019-04-20T10:31:24.517Z,28.93
2019-04-20T10:32:31.127Z,28.83
2019-04-20T10:33:24.213Z,29.43
2019-04-20T10:34:24.305Z,28.93
2019-04-20T10:35:25.469Z,28.83
2019-04-20T10:36:24.190Z,29.33
2019-04-20T10:37:25.089Z,29.23
2019-04-20T10:38:25.544Z,29.11
2019-04-20T10:39:24.589Z,28.93
2019-04-20T10:40:37.830Z,29.13
2019-04-20T10:41:36.023Z,28.92
2019-04-20T10:42:24.115Z,29.13
2019-04-20T10:43:24.101Z,28.83
2019-04-20T10:44:25.032Z,28.93
2019-04-20T10:45:24.590Z,29.13
2019-04-20T10:46:24.869Z,29.72
2019-04-20T10:47:25.290Z,29.43
2019-04-20T10:48:24.049Z,29.02
2019-04-20T10:49:24.928Z,28.81
2019-04-20T10:50:25.099Z,28.92
2019-04-20T10:51:24.032Z,29.02
2019-04-20T10:52:24.006Z,28.52
2019-04-20T10:53:25.909Z,28.92
2019-04-20T10:54:24.663Z,28.81
2019-04-20T10:55:25.175Z,28.72
2019-04-20T10:56:25.313Z,28.92
2019-04-20T10:57:23.949Z,28.62
2019-04-20T10:58:25.227Z,28.52
2019-04-20T10:59:25.713Z,28.32
2019-04-20T11:00:23.924Z,28.62
2019-04-20T11:01:25.171Z,29.11
2019-04-20T11:02:23.897Z,29.11
2019-04-20T11:03:24.894Z,28.80
2019-04-20T11:04:23.880Z,29.02
2019-04-20T11:05:24.500Z,28.92
2019-04-20T11:06:24.755Z,29.21
2019-04-20T11:07:23.902Z,29.21
2019-04-20T11:08:24.504Z,29.02
2019-04-20T11:09:24.826Z,29.02
2019-04-20T11:10:28.510Z,28.80
2019-04-20T11:11:26.974Z,29.20
2019-04-20T11:12:24.249Z,28.81
2019-04-20T11:13:23.783Z,28.90
2019-04-20T11:14:29.753Z,29.00
2019-04-20T11:15:24.177Z,29.10
2019-04-20T11:16:24.339Z,29.10
2019-04-20T11:17:24.600Z,28.31
2019-04-20T11:18:24.836Z,28.80
2019-04-20T11:19:23.718Z,28.41
2019-04-20T11:20:23.716Z,28.41
2019-04-20T11:21:24.638Z,28.41
2019-04-20T11:22:24.159Z,28.21
2019-04-20T11:23:24.436Z,28.21
2019-04-20T11:24:23.663Z,28.31
2019-04-20T11:25:24.310Z,29.10
2019-04-20T11:26:24.370Z,28.21
2019-04-20T11:27:23.642Z,28.90
2019-04-20T11:28:24.058Z,28.70
2019-04-20T11:29:24.184Z,28.41
2019-04-20T11:30:25.779Z,28.21
2019-04-20T11:31:26.798Z,28.21
2019-04-20T11:32:24.185Z,28.31
2019-04-20T11:33:24.538Z,28.21
2019-04-20T11:34:29.520Z,28.21
2019-04-20T11:35:30.514Z,28.80
2019-04-20T11:36:23.560Z,28.21
2019-04-20T11:37:24.763Z,28.51
2019-04-20T11:38:24.046Z,28.21
2019-04-20T11:39:23.534Z,28.61
2019-04-20T11:40:23.492Z,28.61
2019-04-20T11:41:26.094Z,28.39
2019-04-20T11:42:23.647Z,28.30
2019-04-20T11:43:23.980Z,28.51
2019-04-20T11:44:26.379Z,28.09
2019-04-20T11:45:24.705Z,28.79
2019-04-20T11:46:24.856Z,28.21
2019-04-20T11:47:23.428Z,28.00
2019-04-20T11:48:23.430Z,28.00
2019-04-20T11:49:23.698Z,28.49
2019-04-20T11:50:23.386Z,28.01
2019-04-20T11:51:23.455Z,28.49
2019-04-20T11:52:24.918Z,28.20
2019-04-20T11:53:26.670Z,28.59
2019-04-20T11:54:24.324Z,28.79
2019-04-20T11:55:24.343Z,28.59
2019-04-20T11:56:28.007Z,28.49
2019-04-20T11:57:23.329Z,28.49
2019-04-20T11:58:24.092Z,28.49
2019-04-20T11:59:23.286Z,28.00
2019-04-20T12:00:25.180Z,28.59
2019-04-20T12:01:27.255Z,28.09
2019-04-20T12:02:30.233Z,28.79
2019-04-20T12:03:31.138Z,28.59
2019-04-20T12:04:32.768Z,27.90
2019-04-20T12:05:34.726Z,28.49
2019-04-20T12:06:23.217Z,28.00
2019-04-20T12:07:23.231Z,27.90
2019-04-20T12:08:23.193Z,28.00
2019-04-20T12:09:24.535Z,28.00
2019-04-20T12:10:25.536Z,28.00
2019-04-20T12:11:36.486Z,28.09
2019-04-20T12:12:32.889Z,28.00
2019-04-20T12:13:23.149Z,28.09
2019-04-20T12:14:23.130Z,28.59
2019-04-20T12:15:24.380Z,27.80
2019-04-20T12:16:23.613Z,28.09
2019-04-20T12:17:23.748Z,27.80
2019-04-20T12:18:23.441Z,28.09
2019-04-20T12:19:23.075Z,28.09
2019-04-20T12:20:23.062Z,27.90
2019-04-20T12:21:23.189Z,27.80
2019-04-20T12:22:24.114Z,28.00
2019-04-20T12:23:24.373Z,28.09
2019-04-20T12:24:23.019Z,28.00
2019-04-20T12:25:23.761Z,28.00
2019-04-20T12:26:23.000Z,27.90
2019-04-20T12:27:23.010Z,28.09
2019-04-20T12:28:23.017Z,27.90
2019-04-20T12:29:23.782Z,28.09
2019-04-20T12:30:23.919Z,28.00
2019-04-20T12:31:26.933Z,27.90
2019-04-20T12:32:27.108Z,28.00
2019-04-20T12:33:24.238Z,28.09
2019-04-20T12:34:24.430Z,27.79
2019-04-20T12:35:24.503Z,28.59
2019-04-20T12:36:23.946Z,28.00
2019-04-20T12:37:22.987Z,28.59
2019-04-20T12:38:23.218Z,28.59
2019-04-20T12:39:22.876Z,28.59
2019-04-20T12:40:23.985Z,28.08
2019-04-20T12:41:36.654Z,28.08
2019-04-20T12:42:23.117Z,28.09
2019-04-20T12:43:23.649Z,28.08
2019-04-20T12:44:23.677Z,28.00
2019-04-20T12:45:23.872Z,27.89
2019-04-20T12:46:25.177Z,27.90
2019-04-20T12:47:23.709Z,28.00
2019-04-20T12:48:23.903Z,27.90
2019-04-20T12:49:23.594Z,27.80
2019-04-20T12:50:23.471Z,28.09
2019-04-20T12:51:25.201Z,28.00
2019-04-20T12:52:22.854Z,27.90
2019-04-20T12:53:22.744Z,27.89
2019-04-20T12:54:22.836Z,27.98
2019-04-20T12:55:23.598Z,27.98
2019-04-20T12:56:22.684Z,27.98
2019-04-20T12:57:22.742Z,28.08
2019-04-20T12:58:22.856Z,27.98
2019-04-20T12:59:23.495Z,28.67
2019-04-20T13:00:23.677Z,27.89
2019-04-20T13:01:25.380Z,27.79
2019-04-20T13:02:23.607Z,27.98
2019-04-20T13:03:23.544Z,27.89
2019-04-20T13:04:22.743Z,27.98
2019-04-20T13:05:22.584Z,27.98
2019-04-20T13:06:23.863Z,27.98
2019-04-20T13:07:22.816Z,28.08
2019-04-20T13:08:28.648Z,27.98
2019-04-20T13:09:22.857Z,27.98
2019-04-20T13:10:23.419Z,27.89
2019-04-20T13:11:23.097Z,28.08
2019-04-20T13:12:23.580Z,27.98
2019-04-20T13:13:22.775Z,27.89
2019-04-20T13:14:22.491Z,28.08
2019-04-20T13:15:24.468Z,28.08
2019-04-20T13:16:22.681Z,28.58
2019-04-20T13:17:22.461Z,27.98
2019-04-20T13:18:23.298Z,27.98